sensor_id;sensor_type;location;lat;lon;timestamp;pressure;altitude;pressure_sealevel;temperature;humidity
12452;BME280;72521;48.924;12.204;2023-10-31T00:03:06;95779.56;;;10.67;98.88
12452;BME280;72521;48.924;12.204;2023-10-31T00:08:11;95788.47;;;10.63;99.28
12452;BME280;72521;48.924;12.204;2023-10-31T00:13:15;95787.38;;;10.64;99.39
12452;BME280;72521;48.924;12.204;2023-10-31T00:18:19;95789.41;;;10.58;100.00
12452;BME280;72521;48.924;12.204;2023-10-31T00:23:25;95797.34;;;10.58;100.00
12452;BME280;72521;48.924;12.204;2023-10-31T00:28:29;95799.56;;;10.56;100.00
12452;BME280;72521;48.924;12.204;2023-10-31T00:33:34;95803.41;;;10.59;100.00
12452;BME280;72521;48.924;12.204;2023-10-31T00:38:39;95807.03;;;10.54;100.00
12452;BME280;72521;48.924;12.204;2023-10-31T00:43:44;95811.97;;;10.64;100.00
12452;BME280;72521;48.924;12.204;2023-10-31T00:48:48;95807.00;;;10.63;100.00
12452;BME280;72521;48.924;12.204;2023-10-31T00:53:54;95804.50;;;10.66;100.00
12452;BME280;72521;48.924;12.204;2023-10-31T00:58:58;95802.28;;;10.68;100.00
12452;BME280;72521;48.924;12.204;2023-10-31T01:04:04;95809.91;;;10.70;100.00
12452;BME280;72521;48.924;12.204;2023-10-31T01:09:10;95821.25;;;10.70;100.00
12452;BME280;72521;48.924;12.204;2023-10-31T01:14:16;95826.09;;;10.68;100.00
12452;BME280;72521;48.924;12.204;2023-10-31T01:19:20;95839.50;;;10.63;100.00
12452;BME280;72521;48.924;12.204;2023-10-31T01:24:25;95840.59;;;10.62;100.00
12452;BME280;72521;48.924;12.204;2023-10-31T01:29:30;95839.34;;;10.60;99.82
12452;BME280;72521;48.924;12.204;2023-10-31T01:34:34;95844.19;;;10.58;99.23
12452;BME280;72521;48.924;12.204;2023-10-31T01:39:41;95845.16;;;10.53;99.79
12452;BME280;72521;48.924;12.204;2023-10-31T01:44:46;95849.50;;;10.49;99.87
12452;BME280;72521;48.924;12.204;2023-10-31T01:49:51;95841.47;;;10.46;99.90
12452;BME280;72521;48.924;12.204;2023-10-31T01:54:57;95854.38;;;10.47;99.57
12452;BME280;72521;48.924;12.204;2023-10-31T02:00:02;95858.09;;;10.46;99.55
12452;BME280;72521;48.924;12.204;2023-10-31T02:05:14;95853.13;;;10.45;100.00
12452;BME280;72521;48.924;12.204;2023-10-31T02:10:20;95867.75;;;10.42;99.32
12452;BME280;72521;48.924;12.204;2023-10-31T02:15:24;95859.34;;;10.40;98.69
12452;BME280;72521;48.924;12.204;2023-10-31T02:20:28;95874.78;;;10.38;99.82
12452;BME280;72521;48.924;12.204;2023-10-31T02:25:34;95871.19;;;10.34;98.41
12452;BME280;72521;48.924;12.204;2023-10-31T02:30:38;95885.50;;;10.33;98.52
12452;BME280;72521;48.924;12.204;2023-10-31T02:36:03;95872.47;;;10.28;98.55
12452;BME280;72521;48.924;12.204;2023-10-31T02:41:09;95892.22;;;10.22;98.95
12452;BME280;72521;48.924;12.204;2023-10-31T02:46:13;95899.06;;;10.14;99.42
12452;BME280;72521;48.924;12.204;2023-10-31T02:51:18;95902.97;;;9.99;100.00
12452;BME280;72521;48.924;12.204;2023-10-31T02:56:24;95889.13;;;10.02;100.00
12452;BME280;72521;48.924;12.204;2023-10-31T03:01:29;95916.00;;;10.04;99.38
12452;BME280;72521;48.924;12.204;2023-10-31T03:06:33;95917.41;;;10.02;98.16
12452;BME280;72521;48.924;12.204;2023-10-31T03:11:39;95919.16;;;9.89;100.00
12452;BME280;72521;48.924;12.204;2023-10-31T03:16:43;95928.91;;;10.15;98.48
12452;BME280;72521;48.924;12.204;2023-10-31T03:21:47;95937.19;;;9.87;98.98
12452;BME280;72521;48.924;12.204;2023-10-31T03:26:52;95930.94;;;9.92;98.52
12452;BME280;72521;48.924;12.204;2023-10-31T03:31:57;95938.41;;;9.98;97.48
12452;BME280;72521;48.924;12.204;2023-10-31T03:37:02;95924.88;;;9.91;97.43
12452;BME280;72521;48.924;12.204;2023-10-31T03:42:07;95931.09;;;9.95;97.53
12452;BME280;72521;48.924;12.204;2023-10-31T03:47:12;95935.91;;;9.93;97.02
12452;BME280;72521;48.924;12.204;2023-10-31T03:52:16;95944.31;;;9.95;96.43
12452;BME280;72521;48.924;12.204;2023-10-31T03:57:21;95938.88;;;9.92;96.79
12452;BME280;72521;48.924;12.204;2023-10-31T04:02:26;95938.09;;;9.91;96.76
12452;BME280;72521;48.924;12.204;2023-10-31T04:07:30;95947.88;;;9.91;96.77
12452;BME280;72521;48.924;12.204;2023-10-31T04:12:35;95951.16;;;9.88;96.28
12452;BME280;72521;48.924;12.204;2023-10-31T04:17:39;95973.06;;;9.88;96.09
12452;BME280;72521;48.924;12.204;2023-10-31T04:22:43;95971.66;;;9.82;96.01
12452;BME280;72521;48.924;12.204;2023-10-31T04:27:49;95979.13;;;9.80;96.79
12452;BME280;72521;48.924;12.204;2023-10-31T04:32:53;95969.78;;;9.83;95.24
12452;BME280;72521;48.924;12.204;2023-10-31T04:37:57;95973.22;;;9.83;93.85
12452;BME280;72521;48.924;12.204;2023-10-31T04:43:03;95986.59;;;9.78;93.58
12452;BME280;72521;48.924;12.204;2023-10-31T04:48:07;96009.28;;;9.79;93.15
12452;BME280;72521;48.924;12.204;2023-10-31T04:53:11;96003.66;;;9.72;92.73
12452;BME280;72521;48.924;12.204;2023-10-31T04:58:17;96004.72;;;9.62;91.81
12452;BME280;72521;48.924;12.204;2023-10-31T05:03:23;96002.84;;;9.54;91.89
12452;BME280;72521;48.924;12.204;2023-10-31T05:08:28;96009.09;;;9.58;91.11
12452;BME280;72521;48.924;12.204;2023-10-31T05:13:33;96019.34;;;9.51;91.53
12452;BME280;72521;48.924;12.204;2023-10-31T05:18:37;96011.81;;;9.36;91.12
12452;BME280;72521;48.924;12.204;2023-10-31T05:23:41;96039.28;;;9.26;91.66
12452;BME280;72521;48.924;12.204;2023-10-31T05:28:47;96058.81;;;9.25;90.76
12452;BME280;72521;48.924;12.204;2023-10-31T05:33:51;96061.47;;;9.25;91.51
12452;BME280;72521;48.924;12.204;2023-10-31T05:38:56;96062.53;;;9.24;91.05
12452;BME280;72521;48.924;12.204;2023-10-31T05:44:01;96071.09;;;9.21;90.92
12452;BME280;72521;48.924;12.204;2023-10-31T05:49:07;96073.06;;;9.16;91.30
12452;BME280;72521;48.924;12.204;2023-10-31T05:54:11;96083.59;;;9.07;92.75
12452;BME280;72521;48.924;12.204;2023-10-31T05:59:16;96091.47;;;8.99;92.95
12452;BME280;72521;48.924;12.204;2023-10-31T06:04:20;96090.19;;;8.96;92.88
12452;BME280;72521;48.924;12.204;2023-10-31T06:09:25;96106.31;;;8.94;93.39
12452;BME280;72521;48.924;12.204;2023-10-31T06:14:30;96113.94;;;8.96;93.38
12452;BME280;72521;48.924;12.204;2023-10-31T06:19:35;96137.09;;;8.99;92.28
12452;BME280;72521;48.924;12.204;2023-10-31T06:24:39;96142.22;;;9.04;91.75
12452;BME280;72521;48.924;12.204;2023-10-31T06:29:45;96161.19;;;9.06;91.18
12452;BME280;72521;48.924;12.204;2023-10-31T06:35:08;96181.09;;;9.12;91.30
12452;BME280;72521;48.924;12.204;2023-10-31T06:40:12;96196.31;;;9.15;90.36
12452;BME280;72521;48.924;12.204;2023-10-31T06:45:18;96213.22;;;9.14;90.36
12452;BME280;72521;48.924;12.204;2023-10-31T06:50:22;96201.44;;;9.12;91.58
12452;BME280;72521;48.924;12.204;2023-10-31T06:55:26;96196.31;;;9.15;91.30
12452;BME280;72521;48.924;12.204;2023-10-31T07:00:31;96201.44;;;9.12;91.41
12452;BME280;72521;48.924;12.204;2023-10-31T07:05:36;96205.31;;;9.14;91.71
12452;BME280;72521;48.924;12.204;2023-10-31T07:10:40;96210.00;;;9.17;91.48
12452;BME280;72521;48.924;12.204;2023-10-31T07:15:46;96220.06;;;9.15;91.20
12452;BME280;72521;48.924;12.204;2023-10-31T07:20:50;96214.50;;;9.17;90.90
12452;BME280;72521;48.924;12.204;2023-10-31T07:25:54;96218.75;;;9.26;91.19
12452;BME280;72521;48.924;12.204;2023-10-31T07:31:00;96212.13;;;9.38;91.74
12452;BME280;72521;48.924;12.204;2023-10-31T07:36:05;96206.66;;;9.34;91.22
12452;BME280;72521;48.924;12.204;2023-10-31T07:41:10;96214.63;;;9.43;91.35
12452;BME280;72521;48.924;12.204;2023-10-31T07:46:15;96228.16;;;9.41;91.50
12452;BME280;72521;48.924;12.204;2023-10-31T07:51:19;96217.75;;;9.45;90.68
12452;BME280;72521;48.924;12.204;2023-10-31T07:56:23;96200.66;;;9.73;90.25
12452;BME280;72521;48.924;12.204;2023-10-31T08:01:29;96205.28;;;9.59;89.57
12452;BME280;72521;48.924;12.204;2023-10-31T08:06:33;96199.72;;;9.69;90.37
12452;BME280;72521;48.924;12.204;2023-10-31T08:11:37;96216.47;;;9.64;90.70
12452;BME280;72521;48.924;12.204;2023-10-31T08:16:43;96234.69;;;9.75;89.95
12452;BME280;72521;48.924;12.204;2023-10-31T08:21:49;96247.13;;;9.74;89.75
12452;BME280;72521;48.924;12.204;2023-10-31T08:26:54;96257.06;;;9.68;88.11
12452;BME280;72521;48.924;12.204;2023-10-31T08:32:01;96262.50;;;9.72;87.11
12452;BME280;72521;48.924;12.204;2023-10-31T08:37:05;96278.56;;;9.84;87.45
12452;BME280;72521;48.924;12.204;2023-10-31T08:42:09;96275.06;;;9.97;86.71
12452;BME280;72521;48.924;12.204;2023-10-31T08:47:15;96273.66;;;10.00;86.65
12452;BME280;72521;48.924;12.204;2023-10-31T08:52:21;96298.44;;;10.13;86.70
12452;BME280;72521;48.924;12.204;2023-10-31T08:57:25;96309.53;;;9.92;85.80
12452;BME280;72521;48.924;12.204;2023-10-31T09:02:31;96310.50;;;9.96;85.86
12452;BME280;72521;48.924;12.204;2023-10-31T09:07:35;96301.78;;;9.96;83.17
12452;BME280;72521;48.924;12.204;2023-10-31T09:12:39;96303.84;;;9.99;83.77
12452;BME280;72521;48.924;12.204;2023-10-31T09:17:44;96305.22;;;9.96;83.59
12452;BME280;72521;48.924;12.204;2023-10-31T09:22:52;96329.78;;;9.97;83.12
12452;BME280;72521;48.924;12.204;2023-10-31T09:27:57;96334.09;;;9.93;82.31
12452;BME280;72521;48.924;12.204;2023-10-31T09:33:03;96329.09;;;9.91;81.86
12452;BME280;72521;48.924;12.204;2023-10-31T09:38:07;96320.88;;;9.93;83.10
12452;BME280;72521;48.924;12.204;2023-10-31T09:43:13;96320.97;;;9.79;82.17
12452;BME280;72521;48.924;12.204;2023-10-31T09:48:20;96316.38;;;9.93;82.47
12452;BME280;72521;48.924;12.204;2023-10-31T09:53:26;96310.50;;;9.74;81.69
12452;BME280;72521;48.924;12.204;2023-10-31T09:58:31;96301.84;;;9.82;82.35
12452;BME280;72521;48.924;12.204;2023-10-31T10:03:36;96304.88;;;9.89;81.81
12452;BME280;72521;48.924;12.204;2023-10-31T10:08:41;96323.47;;;9.84;81.31
12452;BME280;72521;48.924;12.204;2023-10-31T10:13:46;96328.50;;;9.94;82.19
12452;BME280;72521;48.924;12.204;2023-10-31T10:18:52;96337.03;;;9.91;81.44
12452;BME280;72521;48.924;12.204;2023-10-31T10:23:56;96345.88;;;9.87;81.82
12452;BME280;72521;48.924;12.204;2023-10-31T10:29:01;96353.22;;;9.90;81.46
12452;BME280;72521;48.924;12.204;2023-10-31T10:34:06;96366.56;;;9.93;82.90
12452;BME280;72521;48.924;12.204;2023-10-31T10:39:11;96369.06;;;9.90;84.08
12452;BME280;72521;48.924;12.204;2023-10-31T10:44:16;96375.88;;;9.91;85.18
12452;BME280;72521;48.924;12.204;2023-10-31T10:49:25;96366.56;;;9.93;83.58
12452;BME280;72521;48.924;12.204;2023-10-31T10:54:35;96368.63;;;9.96;82.41
12452;BME280;72521;48.924;12.204;2023-10-31T10:59:42;96360.25;;;10.03;82.36
12452;BME280;72521;48.924;12.204;2023-10-31T11:04:50;96356.09;;;10.11;80.00
12452;BME280;72521;48.924;12.204;2023-10-31T11:09:56;96351.75;;;10.06;79.74
12452;BME280;72521;48.924;12.204;2023-10-31T11:15:02;96351.59;;;10.11;79.73
12452;BME280;72521;48.924;12.204;2023-10-31T11:20:11;96369.03;;;10.12;79.81
12452;BME280;72521;48.924;12.204;2023-10-31T11:25:19;96380.63;;;10.02;79.43
12452;BME280;72521;48.924;12.204;2023-10-31T11:30:34;96383.25;;;10.02;79.59
12452;BME280;72521;48.924;12.204;2023-10-31T11:35:41;96380.84;;;10.15;79.58
12452;BME280;72521;48.924;12.204;2023-10-31T11:40:59;96385.56;;;10.18;79.61
12452;BME280;72521;48.924;12.204;2023-10-31T11:46:05;96375.47;;;10.20;80.48
12452;BME280;72521;48.924;12.204;2023-10-31T11:51:12;96369.81;;;10.13;80.66
12452;BME280;72521;48.924;12.204;2023-10-31T11:56:17;96370.41;;;10.10;81.07
12452;BME280;72521;48.924;12.204;2023-10-31T12:01:21;96366.03;;;10.05;81.11
12452;BME280;72521;48.924;12.204;2023-10-31T12:06:26;96359.13;;;9.95;82.60
12452;BME280;72521;48.924;12.204;2023-10-31T12:11:31;96374.50;;;9.93;84.66
12452;BME280;72521;48.924;12.204;2023-10-31T12:16:35;96373.31;;;9.99;82.97
12452;BME280;72521;48.924;12.204;2023-10-31T12:21:43;96384.06;;;10.25;81.94
12452;BME280;72521;48.924;12.204;2023-10-31T12:26:49;96391.13;;;10.16;82.19
12452;BME280;72521;48.924;12.204;2023-10-31T12:31:54;96401.19;;;10.28;81.39
12452;BME280;72521;48.924;12.204;2023-10-31T12:37:02;96397.28;;;10.25;81.79
12452;BME280;72521;48.924;12.204;2023-10-31T12:42:06;96403.28;;;10.48;81.56
12452;BME280;72521;48.924;12.204;2023-10-31T12:47:11;96402.91;;;10.63;81.79
12452;BME280;72521;48.924;12.204;2023-10-31T12:52:26;96406.44;;;10.59;80.71
12452;BME280;72521;48.924;12.204;2023-10-31T12:57:35;96406.66;;;10.71;80.22
12452;BME280;72521;48.924;12.204;2023-10-31T13:02:40;96417.56;;;10.78;78.97
12452;BME280;72521;48.924;12.204;2023-10-31T13:07:50;96415.44;;;10.89;78.25
12452;BME280;72521;48.924;12.204;2023-10-31T13:12:55;96416.06;;;10.86;78.13
12452;BME280;72521;48.924;12.204;2023-10-31T13:17:59;96417.66;;;10.56;78.10
12452;BME280;72521;48.924;12.204;2023-10-31T13:23:05;96429.13;;;10.51;79.20
12452;BME280;72521;48.924;12.204;2023-10-31T13:28:10;96428.13;;;10.38;79.57
12452;BME280;72521;48.924;12.204;2023-10-31T13:33:15;96440.88;;;10.36;79.13
12452;BME280;72521;48.924;12.204;2023-10-31T13:38:20;96449.72;;;10.32;78.86
12452;BME280;72521;48.924;12.204;2023-10-31T13:43:24;96445.66;;;10.26;79.42
12452;BME280;72521;48.924;12.204;2023-10-31T13:48:28;96461.06;;;10.32;80.01
12452;BME280;72521;48.924;12.204;2023-10-31T13:53:34;96473.69;;;10.35;78.49
12452;BME280;72521;48.924;12.204;2023-10-31T13:58:39;96474.88;;;10.52;78.87
12452;BME280;72521;48.924;12.204;2023-10-31T14:03:43;96482.28;;;10.72;78.42
12452;BME280;72521;48.924;12.204;2023-10-31T14:08:52;96482.59;;;10.70;79.14
12452;BME280;72521;48.924;12.204;2023-10-31T14:13:56;96483.72;;;10.78;78.77
12452;BME280;72521;48.924;12.204;2023-10-31T14:19:02;96491.00;;;10.72;78.65
12452;BME280;72521;48.924;12.204;2023-10-31T14:24:09;96494.56;;;10.68;79.16
12452;BME280;72521;48.924;12.204;2023-10-31T14:29:15;96498.00;;;10.68;79.10
12452;BME280;72521;48.924;12.204;2023-10-31T14:34:19;96501.13;;;10.70;79.04
12452;BME280;72521;48.924;12.204;2023-10-31T14:39:26;96514.00;;;10.63;79.12
12452;BME280;72521;48.924;12.204;2023-10-31T14:44:30;96517.72;;;10.62;79.14
12452;BME280;72521;48.924;12.204;2023-10-31T14:49:34;96523.00;;;10.62;78.86
12452;BME280;72521;48.924;12.204;2023-10-31T14:54:42;96521.25;;;10.58;78.46
12452;BME280;72521;48.924;12.204;2023-10-31T14:59:46;96528.41;;;10.57;78.27
12452;BME280;72521;48.924;12.204;2023-10-31T15:04:52;96538.66;;;10.50;78.20
12452;BME280;72521;48.924;12.204;2023-10-31T15:09:57;96533.34;;;10.50;78.47
12452;BME280;72521;48.924;12.204;2023-10-31T15:15:01;96549.75;;;10.38;78.80
12452;BME280;72521;48.924;12.204;2023-10-31T15:20:07;96560.16;;;10.35;78.62
12452;BME280;72521;48.924;12.204;2023-10-31T15:25:14;96558.69;;;10.29;78.91
12452;BME280;72521;48.924;12.204;2023-10-31T15:30:19;96558.84;;;10.24;79.60
12452;BME280;72521;48.924;12.204;2023-10-31T15:35:24;96565.31;;;10.18;80.37
12452;BME280;72521;48.924;12.204;2023-10-31T15:40:31;96572.53;;;10.12;80.99
12452;BME280;72521;48.924;12.204;2023-10-31T15:45:35;96572.47;;;10.03;82.08
12452;BME280;72521;48.924;12.204;2023-10-31T15:50:43;96576.31;;;9.97;82.29
12452;BME280;72521;48.924;12.204;2023-10-31T15:55:49;96578.44;;;9.95;82.52
12452;BME280;72521;48.924;12.204;2023-10-31T16:00:53;96590.31;;;9.98;82.21
12452;BME280;72521;48.924;12.204;2023-10-31T16:05:58;96591.75;;;10.04;82.05
12452;BME280;72521;48.924;12.204;2023-10-31T16:11:04;96590.38;;;10.07;81.16
12452;BME280;72521;48.924;12.204;2023-10-31T16:16:10;96593.13;;;10.01;82.10
12452;BME280;72521;48.924;12.204;2023-10-31T16:21:17;96599.00;;;9.98;82.09
12452;BME280;72521;48.924;12.204;2023-10-31T16:26:23;96610.16;;;9.95;82.46
12452;BME280;72521;48.924;12.204;2023-10-31T16:31:27;96615.53;;;9.90;82.61
12452;BME280;72521;48.924;12.204;2023-10-31T16:36:32;96626.34;;;9.80;83.27
12452;BME280;72521;48.924;12.204;2023-10-31T16:41:38;96635.00;;;9.81;83.92
12452;BME280;72521;48.924;12.204;2023-10-31T16:46:44;96640.31;;;9.81;83.58
12452;BME280;72521;48.924;12.204;2023-10-31T16:51:49;96646.97;;;9.78;83.61
12452;BME280;72521;48.924;12.204;2023-10-31T16:56:55;96656.75;;;9.78;83.58
12452;BME280;72521;48.924;12.204;2023-10-31T17:01:58;96661.84;;;9.74;84.41
12452;BME280;72521;48.924;12.204;2023-10-31T17:07:03;96674.75;;;9.76;84.79
12452;BME280;72521;48.924;12.204;2023-10-31T17:12:09;96678.75;;;9.73;85.83
12452;BME280;72521;48.924;12.204;2023-10-31T17:17:13;96691.00;;;9.69;87.61
12452;BME280;72521;48.924;12.204;2023-10-31T17:22:17;96704.66;;;9.57;87.73
12452;BME280;72521;48.924;12.204;2023-10-31T17:27:23;96707.19;;;9.49;89.28
12452;BME280;72521;48.924;12.204;2023-10-31T17:32:28;96710.41;;;9.46;89.89
12452;BME280;72521;48.924;12.204;2023-10-31T17:37:33;96719.41;;;9.45;89.83
12452;BME280;72521;48.924;12.204;2023-10-31T17:42:38;96731.63;;;9.41;90.21
12452;BME280;72521;48.924;12.204;2023-10-31T17:47:42;96727.50;;;9.35;89.67
12452;BME280;72521;48.924;12.204;2023-10-31T17:52:47;96735.50;;;9.29;90.29
12452;BME280;72521;48.924;12.204;2023-10-31T17:57:53;96745.34;;;9.24;90.09
12452;BME280;72521;48.924;12.204;2023-10-31T18:02:57;96751.56;;;9.14;90.76
12452;BME280;72521;48.924;12.204;2023-10-31T18:08:02;96762.34;;;9.18;91.37
12452;BME280;72521;48.924;12.204;2023-10-31T18:13:07;96750.88;;;9.09;91.90
12452;BME280;72521;48.924;12.204;2023-10-31T18:18:11;96773.97;;;8.98;92.04
12452;BME280;72521;48.924;12.204;2023-10-31T18:23:15;96778.88;;;8.86;92.77
12452;BME280;72521;48.924;12.204;2023-10-31T18:28:21;96786.47;;;8.74;92.81
12452;BME280;72521;48.924;12.204;2023-10-31T18:33:25;96786.00;;;8.67;93.21
12452;BME280;72521;48.924;12.204;2023-10-31T18:38:32;96796.53;;;8.67;92.81
12452;BME280;72521;48.924;12.204;2023-10-31T18:43:38;96788.06;;;8.70;93.15
12452;BME280;72521;48.924;12.204;2023-10-31T18:49:03;96796.88;;;8.84;92.53
12452;BME280;72521;48.924;12.204;2023-10-31T18:54:14;96800.63;;;8.97;92.59
12452;BME280;72521;48.924;12.204;2023-10-31T18:59:23;96805.22;;;9.10;92.15
12452;BME280;72521;48.924;12.204;2023-10-31T19:04:28;96814.06;;;9.19;92.16
12452;BME280;72521;48.924;12.204;2023-10-31T19:09:32;96818.03;;;9.35;90.80
12452;BME280;72521;48.924;12.204;2023-10-31T19:14:38;96824.59;;;9.38;91.59
12452;BME280;72521;48.924;12.204;2023-10-31T19:19:42;96827.38;;;9.46;90.45
12452;BME280;72521;48.924;12.204;2023-10-31T19:24:46;96830.59;;;9.43;91.60
12452;BME280;72521;48.924;12.204;2023-10-31T19:29:54;96830.81;;;9.47;91.24
12452;BME280;72521;48.924;12.204;2023-10-31T19:35:00;96835.06;;;9.43;91.30
12452;BME280;72521;48.924;12.204;2023-10-31T19:40:06;96844.84;;;9.42;91.74
12452;BME280;72521;48.924;12.204;2023-10-31T19:45:12;96844.56;;;9.44;90.74
12452;BME280;72521;48.924;12.204;2023-10-31T19:50:16;96849.06;;;9.43;90.70
12452;BME280;72521;48.924;12.204;2023-10-31T19:55:20;96855.06;;;9.49;90.31
12452;BME280;72521;48.924;12.204;2023-10-31T20:00:26;96859.94;;;9.42;90.92
12452;BME280;72521;48.924;12.204;2023-10-31T20:05:32;96861.72;;;9.46;90.87
12452;BME280;72521;48.924;12.204;2023-10-31T20:10:36;96873.13;;;9.42;91.83
12452;BME280;72521;48.924;12.204;2023-10-31T20:15:42;96877.91;;;9.40;91.83
12452;BME280;72521;48.924;12.204;2023-10-31T20:20:46;96879.34;;;9.51;91.49
12452;BME280;72521;48.924;12.204;2023-10-31T20:25:50;96885.59;;;9.55;91.93
12452;BME280;72521;48.924;12.204;2023-10-31T20:30:56;96885.59;;;9.55;92.22
12452;BME280;72521;48.924;12.204;2023-10-31T20:36:02;96895.97;;;9.51;93.07
12452;BME280;72521;48.924;12.204;2023-10-31T20:41:06;96890.47;;;9.48;93.70
12452;BME280;72521;48.924;12.204;2023-10-31T20:46:13;96894.75;;;9.44;94.15
12452;BME280;72521;48.924;12.204;2023-10-31T20:51:17;96896.16;;;9.55;94.14
12452;BME280;72521;48.924;12.204;2023-10-31T20:56:21;96898.81;;;9.55;94.80
12452;BME280;72521;48.924;12.204;2023-10-31T21:01:27;96886.16;;;9.52;94.60
12452;BME280;72521;48.924;12.204;2023-10-31T21:06:36;96888.81;;;9.52;94.62
12452;BME280;72521;48.924;12.204;2023-10-31T21:11:42;96891.53;;;9.47;94.16
12452;BME280;72521;48.924;12.204;2023-10-31T21:16:48;96891.91;;;9.40;92.83
12452;BME280;72521;48.924;12.204;2023-10-31T21:21:52;96906.22;;;9.34;94.58
12452;BME280;72521;48.924;12.204;2023-10-31T21:26:57;96912.66;;;9.28;94.91
12452;BME280;72521;48.924;12.204;2023-10-31T21:32:03;96908.66;;;9.12;96.30
12452;BME280;72521;48.924;12.204;2023-10-31T21:37:07;96904.44;;;9.11;97.11
12452;BME280;72521;48.924;12.204;2023-10-31T21:42:14;96903.00;;;9.18;95.77
12452;BME280;72521;48.924;12.204;2023-10-31T21:47:20;96912.44;;;9.24;95.17
12452;BME280;72521;48.924;12.204;2023-10-31T21:52:25;96917.69;;;9.24;95.02
12452;BME280;72521;48.924;12.204;2023-10-31T21:57:29;96918.63;;;9.15;95.85
12452;BME280;72521;48.924;12.204;2023-10-31T22:02:35;96921.06;;;9.11;95.50
12452;BME280;72521;48.924;12.204;2023-10-31T22:07:40;96927.47;;;9.24;94.95
12452;BME280;72521;48.924;12.204;2023-10-31T22:12:45;96928.47;;;9.09;95.70
12452;BME280;72521;48.924;12.204;2023-10-31T22:17:51;96921.84;;;9.12;94.66
12452;BME280;72521;48.924;12.204;2023-10-31T22:22:55;96932.78;;;9.00;94.95
12452;BME280;72521;48.924;12.204;2023-10-31T22:27:59;96938.47;;;8.88;95.68
12452;BME280;72521;48.924;12.204;2023-10-31T22:33:05;96948.19;;;8.93;95.43
12452;BME280;72521;48.924;12.204;2023-10-31T22:38:10;96943.97;;;8.92;95.77
12452;BME280;72521;48.924;12.204;2023-10-31T22:43:14;96957.59;;;8.99;94.39
12452;BME280;72521;48.924;12.204;2023-10-31T22:48:20;96951.25;;;9.00;93.94
12452;BME280;72521;48.924;12.204;2023-10-31T22:53:24;96956.81;;;8.99;94.59
12452;BME280;72521;48.924;12.204;2023-10-31T22:58:32;96963.31;;;9.06;94.32
12452;BME280;72521;48.924;12.204;2023-10-31T23:03:37;96968.59;;;9.06;94.28
12452;BME280;72521;48.924;12.204;2023-10-31T23:08:41;96967.81;;;9.06;94.62
12452;BME280;72521;48.924;12.204;2023-10-31T23:13:45;96967.03;;;9.05;94.67
12452;BME280;72521;48.924;12.204;2023-10-31T23:18:51;96971.03;;;9.03;94.54
12452;BME280;72521;48.924;12.204;2023-10-31T23:23:55;96973.72;;;8.98;94.68
12452;BME280;72521;48.924;12.204;2023-10-31T23:29:00;96981.41;;;8.94;94.03
12452;BME280;72521;48.924;12.204;2023-10-31T23:34:06;96993.53;;;8.95;94.25
12452;BME280;72521;48.924;12.204;2023-10-31T23:39:10;96999.16;;;9.12;93.58
12452;BME280;72521;48.924;12.204;2023-10-31T23:44:16;96989.50;;;9.03;93.50
12452;BME280;72521;48.924;12.204;2023-10-31T23:49:21;97005.53;;;9.06;93.50
12452;BME280;72521;48.924;12.204;2023-10-31T23:54:26;97008.94;;;9.12;92.17
12452;BME280;72521;48.924;12.204;2023-10-31T23:59:30;97011.94;;;9.24;91.54
